createdAt,value
2022-12-11T00:01:54.012Z,1.50
2022-12-11T00:07:03.912Z,1.50
2022-12-11T00:12:19.608Z,1.50
2022-12-11T00:17:33.996Z,1.50
2022-12-11T00:22:50.040Z,1.50
2022-12-11T00:27:58.827Z,1.50
2022-12-11T00:33:16.599Z,1.50
2022-12-11T00:38:33.316Z,1.50
2022-12-11T01:09:28.934Z,1.50
2022-12-11T01:16:30.185Z,1.40
2022-12-11T01:34:36.175Z,1.00
2022-12-11T01:46:46.927Z,0.90
2022-12-11T01:52:32.093Z,0.90
2022-12-11T02:09:38.788Z,0.60
2022-12-11T02:16:22.715Z,0.50
2022-12-11T02:22:07.566Z,0.40
2022-12-11T02:34:31.843Z,0.20
2022-12-11T02:40:32.205Z,0.30
2022-12-11T02:46:11.341Z,0.40
2022-12-11T03:29:28.620Z,-0.20
2022-12-11T03:41:56.425Z,-0.10
2022-12-11T03:47:11.403Z,0.00
2022-12-11T03:52:25.259Z,0.10
2022-12-11T03:57:42.524Z,0.10
2022-12-11T04:03:13.945Z,0.20
2022-12-11T04:08:25.729Z,0.40
2022-12-11T04:13:44.054Z,0.60
2022-12-11T04:19:10.238Z,0.70
2022-12-11T04:24:40.240Z,0.80
2022-12-11T04:30:03.812Z,0.80
2022-12-11T04:35:24.069Z,0.70
2022-12-11T04:40:34.289Z,0.60
2022-12-11T04:45:47.626Z,0.60
2022-12-11T04:50:56.943Z,0.50
2022-12-11T05:27:02.012Z,0.50
2022-12-11T05:32:45.158Z,0.70
2022-12-11T07:35:49.610Z,0.60
2022-12-11T07:41:31.403Z,0.50
2022-12-11T07:47:03.527Z,0.40
2022-12-11T07:52:36.164Z,0.40
2022-12-11T07:58:10.078Z,0.30
2022-12-11T08:03:40.256Z,0.30
2022-12-11T08:15:43.632Z,0.20
2022-12-11T08:32:43.584Z,0.30
2022-12-11T08:56:02.401Z,0.30
2022-12-11T09:01:32.483Z,0.40
2022-12-11T09:06:54.282Z,0.40
2022-12-11T09:12:18.833Z,0.40
2022-12-11T09:22:58.553Z,0.40
2022-12-11T09:28:11.120Z,0.50
2022-12-11T09:33:29.666Z,0.50
2022-12-11T09:39:13.378Z,0.70
2022-12-11T09:50:56.275Z,0.80
2022-12-11T11:48:35.816Z,3.90
2022-12-11T12:06:55.251Z,3.80
2022-12-11T12:13:49.176Z,3.90
2022-12-11T12:19:46.428Z,4.10
2022-12-11T12:25:35.509Z,4.10
2022-12-11T12:31:35.216Z,4.10
2022-12-11T12:49:33.038Z,4.40
2022-12-11T13:07:55.238Z,4.80
2022-12-11T13:13:02.997Z,5.00
2022-12-11T13:18:47.021Z,5.20
2022-12-11T13:23:57.956Z,5.40
2022-12-11T19:29:00.721Z,1.60
2022-12-11T19:34:03.546Z,1.70
2022-12-11T19:39:11.304Z,1.80
2022-12-11T19:44:15.379Z,1.90
2022-12-11T19:49:19.314Z,1.80
2022-12-11T19:54:30.174Z,1.60
2022-12-11T19:59:41.138Z,1.40
2022-12-11T20:04:53.119Z,1.30
2022-12-11T20:15:51.841Z,1.40
2022-12-11T20:27:20.510Z,1.30
2022-12-11T20:40:06.640Z,1.20
2022-12-11T20:45:15.350Z,1.30
2022-12-11T20:50:52.344Z,1.50
2022-12-11T20:56:30.758Z,1.60
2022-12-11T21:01:42.521Z,1.70
2022-12-11T21:06:50.282Z,1.60
2022-12-11T21:17:45.577Z,1.40
2022-12-11T21:23:16.629Z,1.50
2022-12-11T21:28:19.346Z,1.60
2022-12-11T21:38:44.187Z,1.80
2022-12-11T21:44:56.566Z,1.80
2022-12-11T21:49:21.533Z,1.80
2022-12-11T21:54:29.025Z,1.70
2022-12-11T22:05:05.375Z,1.50
2022-12-11T22:10:25.728Z,1.30
2022-12-11T22:16:18.164Z,1.20
2022-12-11T22:21:43.414Z,1.00
2022-12-11T22:32:12.970Z,0.90
2022-12-11T22:42:57.922Z,0.70
2022-12-11T23:00:08.978Z,0.50
2022-12-11T23:05:39.351Z,0.50
2022-12-11T23:11:15.510Z,0.50
2022-12-11T23:16:54.133Z,0.50
2022-12-11T23:22:37.243Z,0.40
2022-12-11T23:27:59.959Z,0.30
2022-12-11T23:44:51.178Z,0.00
2022-12-11T23:55:28.260Z,0.00
